X Fechar
foto
Salvar nos Favoritos

X Fechar
foto
Clique e saiba mais
Clique e saiba mais
Clique e saiba mais
Clique e saiba mais
Clique e saiba mais
Clique e saiba mais

América Sports

Capacete Companhia

Edgers Racing

KTM Sacramento

Toro Sports

Loja Ibox28

JPS Racing

Clique e saiba mais

> Notícias > Últimas Notícias

Motocross das Nações 2018: Resultados dos treinos livres
Publicado em: 06/10/2018

Motos enfrentam lama em RedBud durante os treinos livres. Confira os resultados
Redação MotoX.com.br - Foto: Youthstream

* Essa página será atualizada conforme os resultados forem divulgados pela organização


 

As condições climáticas não estão nada favoráveis neste sábado em RedBud. A chuva atrasou a programação dos treinos livres da 72ª edição do Motocross das Nações em uma hora.

+ Vídeos do Motocross das Nações 2018

Na lama, Antonio Cairoli liderou boa parte do treino livre da categoria MXGP até Jeffrey Herlings marcar a volta mais rápida no finalzinho da sessão. Eli Tomac marcou o 10º tempo e o brasileiro Gustavo Pessoa foi o 22º. Destaque para o veteraníssimo Tanel Leok na sétima posição. É a 18º participação seguida do piloto da Estônia.

P # Treino Livre MXGP Nat. Bike M.V. in lap Diff. V Speed
1 4 Herlings, Jeffrey NED KTM 1:58.541 10 0:00.000 10 55.1
2 19 Cairoli, Antonio ITA KTM 1:59.646 6 0:01.105 10 54.6
3 10 Desalle, Clement BEL Kaw 2:01.911 7 0:03.370 10 53.5
4 58 Roczen, Ken GER Hon 2:02.064 9 0:03.523 10 53.5
5 7 Searle, Tommy GBR Kaw 2:02.429 8 0:03.888 8 53.3
6 1 Paulin, Gautier FRA Hus 2:02.693 5 0:04.152 9 53.2
7 22 Leok, Tanel EST Hus 2:02.812 6 0:04.271 8 53.2
8 124 Edelbacher, Roland AUT KTM 2:04.276 2 0:05.735 9 52.5
9 28 Bengtsson, Filip SWE Yam 2:04.580 8 0:06.039 8 52.4
10 25 Tomac, Eli USA Kaw 2:04.684 8 0:06.143 8 52.4
11 52 Butron, Jose ESP KTM 2:05.477 7 0:06.936 9 52
12 46 Goncalves, Rui POR Yam 2:07.384 7 0:08.843 9 51.2
13 16 Gibbs, Kirk AUS KTM 2:07.779 8 0:09.238 9 51.1
14 49 Windham, Kevin PUR Hon 2:07.833 6 0:09.292 7 51.1
15 61 Cooper, Cody NZL Hon 2:08.001 6 0:09.460 9 51
16 13 Guillod, Valentin SUI KTM 2:08.056 5 0:09.515 5 51
17 76 Docherty, Michael RSA Hus 2:08.344 9 0:09.803 9 50.9
18 64 Kovar, Vaclav CZE KTM 2:08.470 9 0:09.929 9 50.8
19 37 Facciotti, Colton CAN Hon 2:08.847 3 0:10.306 8 50.7
20 127 Badiali, Carlos VEN Yam 2:09.193 8 0:10.652 9 50.5
21 43 Gibson, Gary IRL KTM 2:09.398 5 0:10.857 10 50.4
22 67 de Souza, Gustavo BRA Kaw 2:09.714 7 0:11.173 9 50.3
23 121 Zambrano, Julio Cesar MEX Hus 2:11.350 7 0:12.809 8 49.7
24 88 Luzzardi, Juan Pablo ARG Hon 2:11.469 4 0:12.928 9 49.6
25 82 Asmanov, Dmytro UKR KTM 2:11.655 7 0:13.114 10 49.6
26 118 Koga, Taiki JPN Hon 2:12.282 10 0:13.741 10 49.3
27 136 Fernandez, Jose GUA KTM 2:25.229 7 0:26.688 8 44.9
28 85 Sigurdsson, Einar ISL Hus 2:27.710 1 0:29.169 3 44.2
29 112 Maya, Dan ISR Yam 2:33.107 6 0:34.566 7 42.6
30 115 San Andres, Kenneth PHI Kaw 2:34.626 5 0:36.085 6 42.2

Na MX2, o francês Dylan Ferrandis deu ânimo a equipe atual campeã com a melhor volta, mas Calvin Vlaanderen manteve a Holanda forte com a segunda melhor marca. O brasileiro Enzo Lopes fechou o treino livre na 15ª colocação. 

P # Treino Livre MX2 Nat. Bike M.V. in lap Diff. V Speed
1 2 Ferrandis, Dylan FRA Yam 2:02.033 10 0:00.000 10 53.5
2 5 Vlaanderen, Calvin NED Hon 2:02.990 3 0:00.957 6 53.1
3 17 Lawrence, Hunter AUS Hon 2:03.689 10 0:01.656 10 52.8
4 8 Watson, Ben GBR Yam 2:04.673 7 0:02.640 9 52.4
5 53 Prado, Jorge ESP KTM 2:05.033 5 0:03.000 9 52.2
6 20 Cervellin, Michele ITA Yam 2:05.340 10 0:03.307 10 52.1
7 59 Jacobi, Henry GER Hus 2:05.786 7 0:03.753 10 51.9
8 44 Barr, Martin IRL Hus 2:05.839 7 0:03.806 8 51.9
9 26 Plessinger, Aaron USA Yam 2:06.039 8 0:04.006 9 51.8
10 29 Östlund, Alvin SWE Yam 2:06.423 6 0:04.390 8 51.6
11 11 Geerts, Jago BEL Yam 2:06.458 7 0:04.425 9 51.6
12 23 Roosiorg, Hardi EST KTM 2:06.822 6 0:04.789 10 51.5
13 38 Pettis, Jess CAN Yam 2:07.516 8 0:05.483 9 51.2
14 128 Rodriguez, Anthony VEN Yam 2:07.971 3 0:05.938 8 51
15 68 Lopes, Enzo BRA Suz 2:08.579 5 0:06.546 10 50.8
16 125 Stauffer, Marcel AUT KTM 2:08.699 8 0:06.666 9 50.7
17 50 Sipes, Ryan PUR Hus 2:10.017 5 0:07.984 10 50.2
18 62 Harwood, Hamish NZL KTM 2:10.914 8 0:08.881 9 49.9
19 119 Yakoyama, Haruki JPN Kaw 2:10.944 8 0:08.911 10 49.8
20 65 Krc, Martin CZE KTM 2:11.407 5 0:09.374 9 49.7
21 14 Auberson, Killian SUI KTM 2:11.467 8 0:09.434 9 49.7
22 47 Outeiro, Luis POR Hon 2:12.102 6 0:10.069 8 49.4
23 77 Lionnet, Bradley RSA Yam 2:12.616 8 0:10.583 8 49.2
24 86 Gudmundsson, Andri ISL Hus 2:15.450 6 0:13.417 9 48.2
25 83 Chernov, Dmytro UKR Hus 2:16.072 3 0:14.039 8 48
26 122 Fierro III, Arturo Humberto MEX KTM 2:18.209 6 0:16.176 9 47.2
27 89 Arco, Dario ARG Hon 2:19.626 4 0:17.593 9 46.7
28 137 Bardales Chiu, Rodrigo GUA KTM 2:31.132 4 0:29.099 6 43.2
29 116 Flores, Mark Reggie PHI Kaw 2:33.616 3 0:31.583 8 42.5
30 113 Dadia, Ariel ISR Yam 3:26.414 1 1:24.381 5 31.6

O treino livre da Open foi liderado pelo britânico Max Anstie, mas com a segunda colocação de Glenn Coldenhoff, a Holanda novamente se coloca como forte candidata ao título. Ainda é o primeiro contato com a pista, mas 1-2-2 é um resultado que impressiona em qualquer momento da competição. Fábio Santos levou o Brasil ao 16º lugar da categoria, apenas duas posições atrás do espanhol Carlos Campano, piloto atual campeão brasileiro da MX1. 

P # Treino Livre Open Nat. Bike M.V. in lap Diff. V Speed
1 9 Anstie, Max GBR Hus 2:00.575 4 0:00.000 7 54.1
2 6 Coldenhoff, Glenn NED KTM 2:00.593 6 0:00.018 9 54.1
3 12 Van Horebeek, Jeremy BEL Yam 2:01.644 6 0:01.069 9 53.7
4 27 Barcia, Justin USA Yam 2:01.977 6 0:01.402 10 53.5
5 60 Nagl, Maximilian GER TM 2:02.242 7 0:01.667 9 53.4
6 24 Kullas, Harri EST Hus 2:02.734 5 0:02.159 8 53.2
7 3 Tixier, Jordi FRA KTM 2:02.976 10 0:02.401 10 53.1
8 15 Seewer, Jeremy SUI Yam 2:03.045 7 0:02.470 10 53.1
9 126 Rauchenecker, Pascal AUT Hus 2:03.156 5 0:02.581 5 53
10 21 Lupino, Alessandro ITA Kaw 2:03.234 9 0:02.659 9 53
11 30 Gole, Anton SWE Yam 2:03.890 9 0:03.315 9 52.7
12 39 Medaglia, Tyler CAN Kaw 2:04.107 2 0:03.532 8 52.6
13 18 Evans, Mitchell AUS KTM 2:04.679 8 0:04.104 10 52.4
14 54 Campano, Carlos ESP Yam 2:05.630 5 0:05.055 8 52
15 66 Michek, Martin CZE KTM 2:06.964 7 0:06.389 9 51.4
16 69 Santos, Fabio BRA Yam 2:07.765 5 0:07.190 9 51.1
17 63 Carter, Rhys NZL Yam 2:07.993 4 0:07.418 9 51
18 129 Locurcio, Lorenzo VEN Yam 2:08.300 4 0:07.725 9 50.9
19 84 Tarasov, Volodymyr UKR KTM 2:08.484 9 0:07.909 9 50.8
20 120 Tomita, Toshiki JPN Hon 2:09.965 6 0:09.390 9 50.2
21 123 Lopez, Felix MEX KTM 2:12.707 6 0:12.132 10 49.2
22 78 Tennant, Caleb RSA Hus 2:12.991 3 0:12.416 7 49.1
23 90 Felipe, Jose ARG Hon 2:14.209 5 0:13.634 8 48.6
24 45 Bird, Richard IRL KTM 2:14.620 9 0:14.045 9 48.5
25 48 Graca, Diogo POR Suz 2:14.814 9 0:14.239 10 48.4
26 51 Pastrana, Travis PUR Suz 2:16.371 2 0:15.796 5 47.9
27 87 Birgisson, Ingvi Bjorn ISL Hus 2:19.299 2 0:18.724 7 46.9
28 117 Rodriguez, Carlo PHI Kaw 2:34.809 1 0:34.234 4 42.2
29 138 Gonzalez, Jorge GUA Hon 2:36.573 2 0:35.998 8 41.7





Curso MotoX
JPS Racing

© 2000 - 2018 MotoX MX1 Internet